sensor_id;sensor_type;location;lat;lon;timestamp;P1;durP1;ratioP1;P2;durP2;ratioP2
38248;SDS011;24045;51.138;17.126;2023-06-24T00:06:07;23.30;;;18.20;;
38248;SDS011;24045;51.138;17.126;2023-06-24T00:21:11;20.40;;;16.70;;
38248;SDS011;24045;51.138;17.126;2023-06-24T00:36:13;19.50;;;15.00;;
38248;SDS011;24045;51.138;17.126;2023-06-24T00:51:16;21.80;;;18.20;;
38248;SDS011;24045;51.138;17.126;2023-06-24T01:06:19;18.60;;;13.80;;
38248;SDS011;24045;51.138;17.126;2023-06-24T01:21:42;15.40;;;12.20;;
38248;SDS011;24045;51.138;17.126;2023-06-24T01:37:08;14.00;;;10.00;;
38248;SDS011;24045;51.138;17.126;2023-06-24T01:52:14;9.90;;;7.50;;
38248;SDS011;24045;51.138;17.126;2023-06-24T02:23:53;12.00;;;7.40;;
38248;SDS011;24045;51.138;17.126;2023-06-24T02:38:56;12.60;;;7.60;;
38248;SDS011;24045;51.138;17.126;2023-06-24T02:53:59;10.00;;;7.00;;
38248;SDS011;24045;51.138;17.126;2023-06-24T03:09:03;9.90;;;6.20;;
38248;SDS011;24045;51.138;17.126;2023-06-24T03:24:07;10.30;;;6.50;;
38248;SDS011;24045;51.138;17.126;2023-06-24T03:39:09;11.50;;;7.70;;
38248;SDS011;24045;51.138;17.126;2023-06-24T03:54:12;10.90;;;6.50;;
38248;SDS011;24045;51.138;17.126;2023-06-24T04:09:15;10.90;;;7.20;;
38248;SDS011;24045;51.138;17.126;2023-06-24T04:24:18;10.60;;;6.70;;
38248;SDS011;24045;51.138;17.126;2023-06-24T04:39:20;12.50;;;6.20;;
38248;SDS011;24045;51.138;17.126;2023-06-24T04:54:23;10.40;;;5.30;;
38248;SDS011;24045;51.138;17.126;2023-06-24T05:09:26;10.10;;;4.70;;
38248;SDS011;24045;51.138;17.126;2023-06-24T05:24:28;8.20;;;4.50;;
38248;SDS011;24045;51.138;17.126;2023-06-24T05:39:31;6.80;;;4.10;;
38248;SDS011;24045;51.138;17.126;2023-06-24T05:54:34;6.00;;;3.30;;
38248;SDS011;24045;51.138;17.126;2023-06-24T06:09:37;6.40;;;3.10;;
38248;SDS011;24045;51.138;17.126;2023-06-24T06:24:39;7.50;;;4.30;;
38248;SDS011;24045;51.138;17.126;2023-06-24T06:39:42;9.40;;;4.70;;
38248;SDS011;24045;51.138;17.126;2023-06-24T06:54:45;10.40;;;6.10;;
38248;SDS011;24045;51.138;17.126;2023-06-24T07:09:47;9.50;;;6.40;;
38248;SDS011;24045;51.138;17.126;2023-06-24T07:24:50;10.20;;;6.20;;
38248;SDS011;24045;51.138;17.126;2023-06-24T07:39:53;9.20;;;6.40;;
38248;SDS011;24045;51.138;17.126;2023-06-24T07:54:56;11.80;;;6.60;;
38248;SDS011;24045;51.138;17.126;2023-06-24T08:09:58;11.60;;;8.10;;
38248;SDS011;24045;51.138;17.126;2023-06-24T08:25:01;11.80;;;8.00;;
38248;SDS011;24045;51.138;17.126;2023-06-24T08:40:04;10.60;;;7.30;;
38248;SDS011;24045;51.138;17.126;2023-06-24T08:55:08;11.20;;;8.00;;
38248;SDS011;24045;51.138;17.126;2023-06-24T09:10:31;11.40;;;8.00;;
38248;SDS011;24045;51.138;17.126;2023-06-24T09:25:35;14.40;;;10.20;;
38248;SDS011;24045;51.138;17.126;2023-06-24T09:40:39;12.90;;;9.10;;
38248;SDS011;24045;51.138;17.126;2023-06-24T09:55:42;13.10;;;10.20;;
38248;SDS011;24045;51.138;17.126;2023-06-24T10:10:46;14.20;;;10.40;;
38248;SDS011;24045;51.138;17.126;2023-06-24T10:25:49;12.30;;;10.40;;
38248;SDS011;24045;51.138;17.126;2023-06-24T10:40:52;12.90;;;9.50;;
38248;SDS011;24045;51.138;17.126;2023-06-24T10:55:56;11.00;;;9.40;;
38248;SDS011;24045;51.138;17.126;2023-06-24T11:11:00;10.80;;;8.70;;
38248;SDS011;24045;51.138;17.126;2023-06-24T11:26:05;15.00;;;10.80;;
38248;SDS011;24045;51.138;17.126;2023-06-24T11:41:07;11.10;;;8.00;;
38248;SDS011;24045;51.138;17.126;2023-06-24T11:56:10;10.70;;;7.50;;
38248;SDS011;24045;51.138;17.126;2023-06-24T12:11:13;9.60;;;7.30;;
38248;SDS011;24045;51.138;17.126;2023-06-24T12:26:16;11.30;;;7.10;;
38248;SDS011;24045;51.138;17.126;2023-06-24T12:41:19;9.30;;;6.30;;
38248;SDS011;24045;51.138;17.126;2023-06-24T12:56:21;9.70;;;7.00;;
38248;SDS011;24045;51.138;17.126;2023-06-24T13:11:24;8.80;;;6.20;;
38248;SDS011;24045;51.138;17.126;2023-06-24T13:26:27;11.80;;;6.70;;
38248;SDS011;24045;51.138;17.126;2023-06-24T13:41:30;10.50;;;6.00;;
38248;SDS011;24045;51.138;17.126;2023-06-24T13:56:35;13.80;;;12.20;;
38248;SDS011;24045;51.138;17.126;2023-06-24T14:11:37;9.50;;;6.20;;
38248;SDS011;24045;51.138;17.126;2023-06-24T14:26:40;8.60;;;5.80;;
38248;SDS011;24045;51.138;17.126;2023-06-24T14:41:43;9.60;;;6.00;;
38248;SDS011;24045;51.138;17.126;2023-06-24T14:56:47;9.30;;;5.90;;
38248;SDS011;24045;51.138;17.126;2023-06-24T15:11:49;8.40;;;6.50;;
38248;SDS011;24045;51.138;17.126;2023-06-24T15:26:52;9.80;;;6.50;;
38248;SDS011;24045;51.138;17.126;2023-06-24T15:41:55;9.20;;;6.60;;
38248;SDS011;24045;51.138;17.126;2023-06-24T15:56:58;8.70;;;5.80;;
38248;SDS011;24045;51.138;17.126;2023-06-24T16:12:01;9.60;;;7.10;;
38248;SDS011;24045;51.138;17.126;2023-06-24T16:27:04;10.90;;;7.20;;
38248;SDS011;24045;51.138;17.126;2023-06-24T16:42:07;12.40;;;6.80;;
38248;SDS011;24045;51.138;17.126;2023-06-24T16:57:09;10.50;;;6.80;;
38248;SDS011;24045;51.138;17.126;2023-06-24T17:12:12;12.40;;;9.50;;
38248;SDS011;24045;51.138;17.126;2023-06-24T17:27:15;11.70;;;9.50;;
38248;SDS011;24045;51.138;17.126;2023-06-24T17:42:17;13.50;;;8.50;;
38248;SDS011;24045;51.138;17.126;2023-06-24T17:57:22;10.40;;;7.80;;
38248;SDS011;24045;51.138;17.126;2023-06-24T18:12:25;11.00;;;8.20;;
38248;SDS011;24045;51.138;17.126;2023-06-24T18:27:27;9.50;;;7.70;;
38248;SDS011;24045;51.138;17.126;2023-06-24T18:42:30;12.80;;;10.10;;
38248;SDS011;24045;51.138;17.126;2023-06-24T18:57:33;11.20;;;9.10;;
38248;SDS011;24045;51.138;17.126;2023-06-24T19:12:36;12.90;;;9.80;;
38248;SDS011;24045;51.138;17.126;2023-06-24T19:27:39;15.10;;;11.20;;
38248;SDS011;24045;51.138;17.126;2023-06-24T19:42:41;16.70;;;11.90;;
38248;SDS011;24045;51.138;17.126;2023-06-24T19:57:44;12.60;;;9.60;;
38248;SDS011;24045;51.138;17.126;2023-06-24T20:12:47;15.10;;;10.50;;
38248;SDS011;24045;51.138;17.126;2023-06-24T20:27:50;16.20;;;12.90;;
38248;SDS011;24045;51.138;17.126;2023-06-24T20:42:52;17.10;;;12.70;;
38248;SDS011;24045;51.138;17.126;2023-06-24T20:57:55;17.30;;;12.80;;
38248;SDS011;24045;51.138;17.126;2023-06-24T21:12:59;15.40;;;12.40;;
38248;SDS011;24045;51.138;17.126;2023-06-24T21:28:02;17.90;;;13.40;;
38248;SDS011;24045;51.138;17.126;2023-06-24T21:43:05;21.10;;;13.00;;
38248;SDS011;24045;51.138;17.126;2023-06-24T21:58:08;15.40;;;11.40;;
38248;SDS011;24045;51.138;17.126;2023-06-24T22:13:10;17.30;;;13.50;;
38248;SDS011;24045;51.138;17.126;2023-06-24T22:28:13;17.90;;;13.60;;
38248;SDS011;24045;51.138;17.126;2023-06-24T22:43:16;20.40;;;15.30;;
38248;SDS011;24045;51.138;17.126;2023-06-24T22:58:18;20.60;;;13.90;;
38248;SDS011;24045;51.138;17.126;2023-06-24T23:13:21;21.20;;;15.80;;
38248;SDS011;24045;51.138;17.126;2023-06-24T23:28:24;20.30;;;14.20;;
38248;SDS011;24045;51.138;17.126;2023-06-24T23:43:30;19.80;;;16.50;;
38248;SDS011;24045;51.138;17.126;2023-06-24T23:58:33;16.50;;;13.90;;
